createdAt,value
2019-05-19T00:01:31.477Z,67.09
2019-05-19T00:04:02.086Z,67.14
2019-05-19T00:06:32.738Z,67.18
2019-05-19T00:09:05.390Z,67.23
2019-05-19T00:11:36.230Z,67.28
2019-05-19T00:14:06.643Z,67.33
2019-05-19T00:16:38.549Z,67.40
2019-05-19T00:19:09.506Z,67.45
2019-05-19T00:21:41.287Z,67.50
2019-05-19T00:24:11.943Z,67.55
2019-05-19T00:26:42.608Z,67.60
2019-05-19T00:29:13.968Z,67.65
2019-05-19T00:31:46.475Z,67.73
2019-05-19T00:34:16.764Z,67.77
2019-05-19T00:36:47.053Z,67.83
2019-05-19T00:39:17.317Z,67.87
2019-05-19T00:41:47.512Z,67.94
2019-05-19T00:44:19.125Z,67.99
2019-05-19T00:46:50.046Z,68.05
2019-05-19T00:49:22.140Z,68.10
2019-05-19T00:51:52.980Z,68.16
2019-05-19T00:54:23.383Z,68.21
2019-05-19T00:56:55.332Z,68.30
2019-05-19T00:59:27.518Z,68.34
2019-05-19T01:01:58.781Z,68.41
2019-05-19T01:04:29.185Z,68.48
2019-05-19T01:06:59.408Z,68.53
2019-05-19T01:09:29.638Z,68.57
2019-05-19T01:11:59.859Z,68.65
2019-05-19T01:14:30.162Z,68.71
2019-05-19T01:17:00.734Z,68.78
2019-05-19T01:19:31.402Z,68.82
2019-05-19T01:22:02.343Z,68.90
2019-05-19T01:24:32.621Z,68.95
2019-05-19T01:27:02.813Z,69.01
2019-05-19T01:29:33.076Z,69.07
2019-05-19T01:32:03.805Z,69.11
2019-05-19T01:34:34.092Z,69.16
2019-05-19T01:37:04.746Z,69.23
2019-05-19T01:39:35.074Z,69.29
2019-05-19T01:42:05.386Z,69.35
2019-05-19T01:44:35.700Z,69.41
2019-05-19T01:47:06.330Z,69.45
2019-05-19T01:49:36.877Z,69.50
2019-05-19T01:52:07.141Z,69.56
2019-05-19T01:54:37.434Z,69.62
2019-05-19T01:57:07.673Z,69.70
2019-05-19T01:59:38.364Z,69.77
2019-05-19T02:02:08.717Z,69.80
2019-05-19T02:04:38.966Z,69.87
2019-05-19T02:07:09.408Z,69.93
2019-05-19T02:09:40.106Z,69.97
2019-05-19T02:12:10.763Z,70.04
2019-05-19T02:14:42.070Z,70.10
2019-05-19T02:17:12.382Z,70.14
2019-05-19T02:19:43.490Z,70.22
2019-05-19T02:22:13.895Z,70.26
2019-05-19T02:24:44.133Z,70.31
2019-05-19T02:27:14.908Z,70.36
2019-05-19T02:29:45.301Z,70.43
2019-05-19T02:32:15.526Z,70.49
2019-05-19T02:34:45.768Z,70.57
2019-05-19T02:37:15.980Z,70.61
2019-05-19T02:39:46.263Z,70.68
2019-05-19T02:42:19.173Z,70.72
2019-05-19T02:44:52.858Z,70.79
2019-05-19T02:47:26.912Z,70.85
2019-05-19T02:50:00.709Z,70.91
2019-05-19T02:52:33.560Z,70.96
2019-05-19T02:55:05.760Z,71.03
2019-05-19T02:57:38.774Z,71.07
2019-05-19T03:00:11.154Z,71.15
2019-05-19T03:02:42.605Z,71.19
2019-05-19T03:05:14.488Z,71.26
2019-05-19T03:07:45.149Z,71.32
2019-05-19T03:10:15.861Z,71.35
2019-05-19T03:12:46.538Z,71.43
2019-05-19T03:15:17.451Z,71.50
2019-05-19T03:17:47.770Z,71.55
2019-05-19T03:20:17.995Z,71.60
2019-05-19T03:22:48.269Z,71.67
2019-05-19T03:25:18.538Z,71.73
2019-05-19T03:27:48.967Z,71.75
2019-05-19T03:30:27.050Z,71.82
2019-05-19T03:33:01.565Z,71.88
2019-05-19T03:35:32.618Z,71.94
2019-05-19T03:38:02.937Z,72.00
2019-05-19T03:40:33.165Z,72.04
2019-05-19T03:43:03.533Z,72.10
2019-05-19T03:45:33.740Z,72.15
2019-05-19T03:48:04.349Z,72.21
2019-05-19T03:50:34.648Z,72.26
2019-05-19T03:53:05.260Z,72.28
2019-05-19T03:55:37.605Z,72.35
2019-05-19T03:58:08.252Z,72.39
2019-05-19T04:00:38.854Z,72.43
2019-05-19T04:03:09.052Z,72.46
2019-05-19T04:05:39.678Z,72.49
2019-05-19T04:08:10.039Z,72.52
2019-05-19T04:10:40.322Z,72.56
2019-05-19T04:13:11.011Z,72.59
2019-05-19T04:15:41.297Z,72.62
2019-05-19T04:18:11.628Z,72.67
2019-05-19T04:20:42.210Z,72.67
2019-05-19T04:23:12.513Z,72.69
2019-05-19T04:25:43.126Z,72.71
2019-05-19T04:28:13.444Z,72.71
2019-05-19T04:30:43.870Z,72.74
2019-05-19T04:33:14.119Z,72.73
2019-05-19T04:35:44.694Z,72.72
2019-05-19T04:38:15.445Z,72.69
2019-05-19T04:40:45.723Z,72.65
2019-05-19T04:43:17.235Z,72.59
2019-05-19T04:45:47.527Z,72.56
2019-05-19T04:48:18.106Z,72.52
2019-05-19T04:50:49.921Z,72.48
2019-05-19T04:53:22.074Z,72.40
2019-05-19T04:55:53.424Z,72.34
2019-05-19T04:58:24.023Z,72.27
2019-05-19T05:00:57.058Z,72.19
2019-05-19T05:03:27.368Z,72.14
2019-05-19T05:05:57.613Z,72.06
2019-05-19T05:08:30.616Z,72.00
2019-05-19T05:11:00.226Z,71.96
2019-05-19T05:13:34.010Z,71.89
2019-05-19T05:16:04.464Z,71.85
2019-05-19T05:18:35.079Z,71.77
2019-05-19T05:21:07.888Z,71.72
2019-05-19T05:23:38.133Z,71.65
2019-05-19T05:26:11.271Z,71.60
2019-05-19T05:28:43.512Z,71.53
2019-05-19T05:31:15.592Z,71.49
2019-05-19T05:33:48.252Z,71.42
2019-05-19T05:36:19.134Z,71.35
2019-05-19T05:38:49.533Z,71.23
2019-05-19T05:41:20.231Z,71.13
2019-05-19T05:43:50.632Z,71.01
2019-05-19T05:46:21.211Z,70.91
2019-05-19T05:48:51.605Z,70.77
2019-05-19T05:51:21.825Z,70.60
2019-05-19T05:53:54.784Z,70.46
2019-05-19T05:56:25.080Z,70.32
2019-05-19T05:58:55.358Z,70.17
2019-05-19T06:01:25.825Z,70.03
2019-05-19T06:03:56.518Z,69.91
2019-05-19T06:06:28.602Z,69.78
2019-05-19T06:08:59.996Z,69.69
2019-05-19T06:11:30.199Z,69.61
2019-05-19T06:14:00.805Z,69.52
2019-05-19T06:16:45.087Z,69.44
2019-05-19T06:19:15.514Z,69.36
2019-05-19T06:21:46.174Z,69.28
2019-05-19T06:24:16.864Z,69.19
2019-05-19T06:26:49.110Z,69.13
2019-05-19T06:29:19.480Z,69.07
2019-05-19T06:31:49.738Z,68.98
2019-05-19T06:34:20.298Z,68.89
2019-05-19T06:36:55.168Z,68.79
2019-05-19T06:39:25.972Z,68.72
2019-05-19T06:41:58.426Z,68.65
2019-05-19T06:44:30.097Z,68.54
2019-05-19T06:47:01.587Z,68.48
2019-05-19T06:49:35.173Z,68.39
2019-05-19T06:52:05.560Z,68.32
2019-05-19T06:54:35.776Z,68.28
2019-05-19T06:57:06.228Z,68.20
2019-05-19T06:59:36.525Z,68.15
2019-05-19T07:02:07.609Z,68.08
2019-05-19T07:04:37.912Z,68.03
2019-05-19T07:07:08.412Z,67.96
2019-05-19T07:09:39.090Z,67.90
2019-05-19T07:12:09.764Z,67.85
2019-05-19T07:14:41.345Z,67.78
2019-05-19T07:17:13.296Z,67.70
2019-05-19T07:19:43.529Z,67.65
2019-05-19T07:22:13.813Z,67.59
2019-05-19T07:24:44.944Z,67.54
2019-05-19T07:27:15.379Z,67.49
2019-05-19T07:29:48.287Z,67.41
2019-05-19T07:32:19.058Z,67.33
2019-05-19T07:34:51.267Z,67.25
2019-05-19T07:37:22.596Z,67.17
2019-05-19T07:39:52.908Z,67.11
2019-05-19T07:42:23.498Z,66.99
2019-05-19T07:44:54.955Z,66.91
2019-05-19T07:47:25.591Z,66.85
2019-05-19T07:49:56.239Z,66.77
2019-05-19T07:52:28.291Z,66.67
2019-05-19T07:54:58.942Z,66.59
2019-05-19T07:57:34.022Z,66.49
2019-05-19T08:00:04.853Z,66.36
2019-05-19T08:02:35.549Z,66.25
2019-05-19T08:05:06.581Z,66.14
2019-05-19T08:07:40.061Z,66.02
2019-05-19T08:10:11.285Z,65.90
2019-05-19T08:12:41.537Z,65.78
2019-05-19T08:15:12.061Z,65.67
2019-05-19T08:17:42.332Z,65.56
2019-05-19T08:20:13.687Z,65.45
2019-05-19T08:22:44.543Z,65.35
2019-05-19T08:25:20.961Z,65.23
2019-05-19T08:27:51.701Z,65.16
2019-05-19T08:30:22.189Z,65.07
2019-05-19T08:32:52.577Z,64.99
2019-05-19T08:35:22.815Z,64.88
2019-05-19T08:37:54.758Z,64.83
2019-05-19T08:40:25.980Z,64.75
2019-05-19T08:42:57.449Z,64.71
2019-05-19T08:45:28.248Z,64.65
2019-05-19T08:47:58.599Z,64.60
2019-05-19T08:50:29.024Z,64.52
2019-05-19T08:52:59.689Z,64.46
2019-05-19T08:55:30.271Z,64.38
2019-05-19T08:58:00.735Z,64.27
2019-05-19T09:00:38.064Z,64.19
2019-05-19T09:03:06.466Z,64.08
2019-05-19T09:05:37.220Z,63.96
2019-05-19T09:08:07.607Z,63.84
2019-05-19T09:10:38.038Z,63.72
2019-05-19T09:13:10.101Z,63.60
2019-05-19T09:15:40.942Z,63.47
2019-05-19T09:18:13.121Z,63.33
2019-05-19T09:20:43.768Z,63.20
2019-05-19T09:23:15.927Z,63.06
2019-05-19T09:25:49.386Z,62.96
2019-05-19T09:28:20.211Z,62.88
2019-05-19T09:30:50.834Z,62.72
2019-05-19T09:33:21.591Z,62.59
2019-05-19T09:35:51.979Z,62.46
2019-05-19T09:38:22.555Z,62.34
2019-05-19T09:40:53.202Z,62.17
2019-05-19T09:43:26.741Z,62.02
2019-05-19T09:45:57.647Z,61.83
2019-05-19T09:48:30.580Z,61.65
2019-05-19T09:51:00.929Z,61.41
2019-05-19T09:53:31.538Z,61.11
2019-05-19T09:56:02.404Z,60.79
2019-05-19T09:58:33.042Z,60.38
2019-05-19T10:01:03.356Z,60.02
2019-05-19T10:03:34.157Z,59.67
2019-05-19T10:06:05.153Z,59.32
2019-05-19T10:08:39.671Z,58.97
2019-05-19T10:11:25.765Z,58.59
2019-05-19T10:13:56.158Z,58.20
2019-05-19T10:16:28.944Z,57.79
2019-05-19T10:19:02.827Z,57.49
2019-05-19T10:21:36.277Z,57.14
2019-05-19T10:24:06.665Z,56.86
2019-05-19T10:26:37.237Z,56.61
2019-05-19T10:29:07.552Z,56.38
2019-05-19T10:32:02.597Z,56.19
2019-05-19T10:34:40.071Z,55.97
2019-05-19T10:37:20.704Z,55.77
2019-05-19T10:39:56.430Z,55.61
2019-05-19T10:42:28.218Z,55.46
2019-05-19T10:45:03.383Z,55.34
2019-05-19T10:47:31.828Z,55.25
2019-05-19T10:50:02.209Z,55.14
2019-05-19T10:52:32.462Z,55.04
2019-05-19T10:55:03.414Z,54.96
2019-05-19T10:57:35.332Z,54.89
2019-05-19T11:00:08.497Z,54.85
2019-05-19T11:02:38.782Z,54.78
2019-05-19T11:05:11.292Z,54.72
2019-05-19T11:07:41.470Z,54.66
2019-05-19T11:10:12.243Z,54.61
2019-05-19T11:12:42.897Z,54.53
2019-05-19T11:15:13.484Z,54.45
2019-05-19T11:17:43.880Z,54.35
2019-05-19T11:20:14.314Z,54.24
2019-05-19T11:22:44.721Z,54.13
2019-05-19T11:25:15.034Z,54.05
2019-05-19T11:27:45.273Z,53.92
2019-05-19T11:30:15.628Z,53.81
2019-05-19T11:32:45.967Z,53.70
2019-05-19T11:35:16.220Z,53.59
2019-05-19T11:37:46.612Z,53.51
2019-05-19T11:40:17.134Z,53.41
2019-05-19T11:42:47.477Z,53.29
2019-05-19T11:45:17.944Z,53.17
2019-05-19T11:47:48.616Z,53.07
2019-05-19T11:50:20.656Z,52.94
2019-05-19T11:52:51.569Z,52.79
2019-05-19T11:55:23.296Z,52.66
2019-05-19T11:57:54.003Z,52.54
2019-05-19T12:00:24.363Z,52.41
2019-05-19T12:02:54.667Z,52.27
2019-05-19T12:05:24.992Z,52.16
2019-05-19T12:07:55.426Z,52.05
2019-05-19T12:10:26.074Z,51.93
2019-05-19T12:12:56.697Z,51.88
2019-05-19T12:15:27.438Z,51.80
2019-05-19T12:17:59.364Z,51.74
2019-05-19T12:20:30.436Z,51.67
2019-05-19T12:23:00.907Z,51.63
2019-05-19T12:25:32.299Z,51.59
2019-05-19T12:28:02.730Z,51.55
2019-05-19T12:30:33.138Z,51.50
2019-05-19T12:33:04.802Z,51.42
2019-05-19T12:35:35.453Z,51.38
2019-05-19T12:38:05.837Z,51.31
2019-05-19T12:40:36.063Z,51.24
2019-05-19T12:43:06.400Z,51.15
2019-05-19T12:45:36.637Z,51.06
2019-05-19T12:48:07.012Z,51.01
2019-05-19T12:50:37.549Z,50.96
2019-05-19T12:53:08.433Z,50.88
2019-05-19T12:55:39.041Z,50.84
2019-05-19T12:58:09.319Z,50.74
2019-05-19T13:00:39.607Z,50.67
2019-05-19T13:03:12.968Z,50.60
2019-05-19T13:05:43.559Z,50.50
2019-05-19T13:08:14.019Z,50.42
2019-05-19T13:10:44.619Z,50.33
2019-05-19T13:13:15.645Z,50.26
2019-05-19T13:15:46.023Z,50.15
2019-05-19T13:18:16.306Z,50.10
2019-05-19T13:20:49.648Z,50.05
2019-05-19T13:23:20.376Z,50.00
2019-05-19T13:25:51.034Z,49.98
2019-05-19T13:28:21.350Z,49.93
2019-05-19T13:30:51.931Z,49.90
2019-05-19T13:33:25.086Z,49.88
2019-05-19T13:35:55.927Z,49.86
2019-05-19T13:38:28.318Z,49.83
2019-05-19T13:40:58.629Z,49.80
2019-05-19T13:43:28.886Z,49.77
2019-05-19T13:45:59.155Z,49.76
2019-05-19T13:48:29.741Z,49.73
2019-05-19T13:51:00.025Z,49.70
2019-05-19T13:53:36.854Z,49.68
2019-05-19T13:56:13.327Z,49.65
2019-05-19T13:58:43.562Z,49.63
2019-05-19T14:01:27.550Z,49.62
2019-05-19T14:03:45.838Z,49.58
2019-05-19T14:06:17.579Z,49.57
2019-05-19T14:08:49.837Z,49.53
2019-05-19T14:11:20.548Z,49.51
2019-05-19T14:13:50.909Z,49.50
2019-05-19T14:16:21.214Z,49.49
2019-05-19T14:18:51.509Z,49.45
2019-05-19T14:21:21.815Z,49.45
2019-05-19T14:23:52.244Z,49.43
2019-05-19T14:26:22.925Z,49.42
2019-05-19T14:28:55.134Z,49.43
2019-05-19T14:31:25.583Z,49.41
2019-05-19T14:33:55.834Z,49.42
2019-05-19T14:36:26.144Z,49.43
2019-05-19T14:39:05.476Z,49.44
2019-05-19T14:41:36.788Z,49.45
2019-05-19T14:44:07.582Z,49.44
2019-05-19T14:46:38.634Z,49.46
2019-05-19T14:49:08.964Z,49.47
2019-05-19T14:51:40.922Z,49.46
2019-05-19T14:54:11.750Z,49.47
2019-05-19T14:56:42.231Z,49.44
2019-05-19T14:59:12.600Z,49.43
2019-05-19T15:01:43.316Z,49.46
2019-05-19T15:04:13.617Z,49.44
2019-05-19T15:06:45.904Z,49.43
2019-05-19T15:09:16.700Z,49.43
2019-05-19T15:11:53.984Z,49.41
2019-05-19T15:14:27.125Z,49.42
2019-05-19T15:16:57.758Z,49.41
2019-05-19T15:19:29.260Z,49.41
2019-05-19T15:21:59.671Z,49.42
2019-05-19T15:24:29.918Z,49.40
2019-05-19T15:27:00.222Z,49.39
2019-05-19T15:29:30.459Z,49.42
2019-05-19T15:32:02.397Z,49.41
2019-05-19T15:34:33.266Z,49.41
2019-05-19T15:37:03.997Z,49.41
2019-05-19T15:39:34.839Z,49.42
2019-05-19T15:42:05.519Z,49.43
2019-05-19T15:44:36.189Z,49.46
2019-05-19T15:47:21.198Z,49.47
2019-05-19T15:50:03.330Z,49.52
2019-05-19T15:52:34.980Z,49.54
2019-05-19T15:55:06.488Z,49.56
2019-05-19T15:57:38.910Z,49.61
2019-05-19T16:00:11.643Z,49.64
2019-05-19T16:02:46.979Z,49.64
2019-05-19T16:05:17.369Z,49.63
2019-05-19T16:07:49.665Z,49.66
2019-05-19T16:10:20.865Z,49.69
2019-05-19T16:12:51.523Z,49.72
2019-05-19T16:15:22.753Z,49.72
2019-05-19T16:17:53.618Z,49.79
2019-05-19T16:20:27.018Z,49.84
2019-05-19T16:23:02.427Z,49.86
2019-05-19T16:25:33.694Z,49.90
2019-05-19T16:28:04.124Z,49.97
2019-05-19T16:30:34.810Z,50.00
2019-05-19T16:33:05.529Z,50.04
2019-05-19T16:35:35.733Z,50.09
2019-05-19T16:38:06.057Z,50.14
2019-05-19T16:40:36.667Z,50.20
2019-05-19T16:43:07.429Z,50.26
2019-05-19T16:45:37.825Z,50.34
2019-05-19T16:48:08.174Z,50.39
2019-05-19T16:50:38.427Z,50.45
2019-05-19T16:53:08.634Z,50.52
2019-05-19T16:55:40.494Z,50.59
2019-05-19T16:58:20.678Z,50.65
2019-05-19T17:00:43.352Z,50.74
2019-05-19T17:03:13.689Z,50.81
2019-05-19T17:05:44.000Z,50.89
2019-05-19T17:08:14.230Z,50.96
2019-05-19T17:10:45.028Z,51.05
2019-05-19T17:13:16.524Z,51.12
2019-05-19T17:15:48.399Z,51.21
2019-05-19T17:18:19.128Z,51.28
2019-05-19T17:20:49.401Z,51.34
2019-05-19T17:23:20.792Z,51.42
2019-05-19T17:25:51.183Z,51.48
2019-05-19T17:28:21.776Z,51.57
2019-05-19T17:30:52.142Z,51.64
2019-05-19T17:33:23.365Z,51.70
2019-05-19T17:35:53.600Z,51.76
2019-05-19T17:38:23.892Z,51.84
2019-05-19T17:40:54.234Z,51.91
2019-05-19T17:43:24.477Z,51.97
2019-05-19T17:45:55.065Z,52.03
2019-05-19T17:48:26.919Z,52.11
2019-05-19T17:50:57.908Z,52.18
2019-05-19T17:53:28.577Z,52.26
2019-05-19T17:56:01.290Z,52.33
2019-05-19T17:58:33.161Z,52.41
2019-05-19T18:01:06.945Z,52.50
2019-05-19T18:03:39.559Z,52.56
2019-05-19T18:06:09.972Z,52.66
2019-05-19T18:08:42.335Z,52.74
2019-05-19T18:11:13.047Z,52.84
2019-05-19T18:13:45.334Z,52.93
2019-05-19T18:16:15.741Z,53.01
2019-05-19T18:18:45.956Z,53.12
2019-05-19T18:21:16.318Z,53.23
2019-05-19T18:23:46.544Z,53.32
2019-05-19T18:26:17.155Z,53.45
2019-05-19T18:28:47.506Z,53.53
2019-05-19T18:31:19.705Z,53.63
2019-05-19T18:33:50.443Z,53.72
2019-05-19T18:36:20.706Z,53.84
2019-05-19T18:38:53.949Z,53.96
2019-05-19T18:41:26.579Z,54.06
2019-05-19T18:44:00.051Z,54.17
2019-05-19T18:46:30.703Z,54.31
2019-05-19T18:49:05.667Z,54.44
2019-05-19T18:51:36.970Z,54.56
2019-05-19T18:54:07.285Z,54.68
2019-05-19T18:56:40.744Z,54.79
2019-05-19T18:59:10.995Z,54.92
2019-05-19T19:01:43.190Z,55.07
2019-05-19T19:04:13.544Z,55.20
2019-05-19T19:06:44.133Z,55.36
2019-05-19T19:09:15.983Z,55.49
2019-05-19T19:11:46.241Z,55.64
2019-05-19T19:14:16.800Z,55.78
2019-05-19T19:16:47.540Z,55.91
2019-05-19T19:19:17.892Z,56.06
2019-05-19T19:21:48.180Z,56.21
2019-05-19T19:24:19.918Z,56.37
2019-05-19T19:26:50.218Z,56.50
2019-05-19T19:29:20.579Z,56.66
2019-05-19T19:31:50.844Z,56.78
2019-05-19T19:34:21.201Z,56.91
2019-05-19T19:36:51.421Z,57.06
2019-05-19T19:39:23.609Z,57.20
2019-05-19T19:41:54.157Z,57.34
2019-05-19T19:44:24.434Z,57.48
2019-05-19T19:46:54.786Z,57.63
2019-05-19T19:49:25.763Z,57.77
2019-05-19T19:51:58.777Z,57.91
2019-05-19T19:54:33.461Z,58.07
2019-05-19T19:57:03.958Z,58.18
2019-05-19T19:59:34.799Z,58.34
2019-05-19T20:02:06.056Z,58.47
2019-05-19T20:04:38.006Z,58.60
2019-05-19T20:07:08.298Z,58.74
2019-05-19T20:09:38.524Z,58.87
2019-05-19T20:12:08.783Z,59.01
2019-05-19T20:14:38.995Z,59.15
2019-05-19T20:17:09.651Z,59.31
2019-05-19T20:19:40.162Z,59.43
2019-05-19T20:22:10.389Z,59.57
2019-05-19T20:24:41.058Z,59.72
2019-05-19T20:27:12.622Z,59.84
2019-05-19T20:29:42.835Z,59.97
2019-05-19T20:32:13.046Z,60.09
2019-05-19T20:34:43.334Z,60.25
2019-05-19T20:37:15.260Z,60.37
2019-05-19T20:39:45.605Z,60.50
2019-05-19T20:42:15.885Z,60.62
2019-05-19T20:44:46.536Z,60.75
2019-05-19T20:47:17.173Z,60.89
2019-05-19T20:49:47.478Z,61.02
2019-05-19T20:52:17.731Z,61.13
2019-05-19T20:54:48.351Z,61.25
2019-05-19T20:57:18.783Z,61.37
2019-05-19T20:59:50.054Z,61.52
2019-05-19T21:02:20.755Z,61.64
2019-05-19T21:04:51.964Z,61.75
2019-05-19T21:07:22.657Z,61.87
2019-05-19T21:09:54.588Z,62.00
2019-05-19T21:12:28.676Z,62.11
2019-05-19T21:15:00.047Z,62.23
2019-05-19T21:17:31.910Z,62.35
2019-05-19T21:20:02.841Z,62.49
2019-05-19T21:22:33.722Z,62.58
2019-05-19T21:25:06.662Z,62.67
2019-05-19T21:27:37.011Z,62.79
2019-05-19T21:30:11.260Z,62.92
2019-05-19T21:32:40.999Z,63.00
2019-05-19T21:35:12.903Z,63.09
2019-05-19T21:37:43.499Z,63.20
2019-05-19T21:40:14.219Z,63.28
2019-05-19T21:42:48.641Z,63.38
2019-05-19T21:45:19.569Z,63.46
2019-05-19T21:47:50.300Z,63.57
2019-05-19T21:50:21.039Z,63.63
2019-05-19T21:52:51.714Z,63.74
2019-05-19T21:55:22.430Z,63.82
2019-05-19T21:57:53.111Z,63.92
2019-05-19T22:00:25.128Z,64.04
2019-05-19T22:02:56.925Z,64.12
2019-05-19T22:05:27.247Z,64.22
2019-05-19T22:08:08.099Z,64.32
2019-05-19T22:10:38.366Z,64.41
2019-05-19T22:13:08.586Z,64.52
2019-05-19T22:15:39.230Z,64.61
2019-05-19T22:18:09.592Z,64.73
2019-05-19T22:20:40.189Z,64.83
2019-05-19T22:23:10.491Z,64.91
2019-05-19T22:25:41.123Z,65.01
2019-05-19T22:28:11.836Z,65.09
2019-05-19T22:30:42.165Z,65.19
2019-05-19T22:33:12.476Z,65.28
2019-05-19T22:35:42.709Z,65.37
2019-05-19T22:38:13.017Z,65.48
2019-05-19T22:40:43.679Z,65.57
2019-05-19T22:43:15.493Z,65.65
2019-05-19T22:45:46.090Z,65.74
2019-05-19T22:48:16.377Z,65.85
2019-05-19T22:50:46.954Z,65.95
2019-05-19T22:53:17.615Z,66.02
2019-05-19T22:55:48.258Z,66.10
2019-05-19T22:58:18.983Z,66.19
2019-05-19T23:00:49.620Z,66.29
2019-05-19T23:03:20.300Z,66.35
2019-05-19T23:05:50.929Z,66.45
2019-05-19T23:08:21.623Z,66.54
2019-05-19T23:10:51.901Z,66.60
2019-05-19T23:13:22.574Z,66.70
2019-05-19T23:15:52.892Z,66.77
2019-05-19T23:18:23.133Z,66.85
2019-05-19T23:20:53.392Z,66.91
2019-05-19T23:23:26.643Z,67.00
2019-05-19T23:25:56.866Z,67.07
2019-05-19T23:28:27.154Z,67.17
2019-05-19T23:30:57.710Z,67.24
2019-05-19T23:33:28.043Z,67.33
2019-05-19T23:35:58.286Z,67.41
2019-05-19T23:38:28.876Z,67.47
2019-05-19T23:40:59.536Z,67.54
2019-05-19T23:43:31.367Z,67.63
2019-05-19T23:46:01.685Z,67.69
2019-05-19T23:48:32.250Z,67.77
2019-05-19T23:51:02.918Z,67.86
2019-05-19T23:53:33.603Z,67.93
2019-05-19T23:56:04.283Z,68.01
2019-05-19T23:58:34.859Z,68.06
